Time;durP1;ratioP1;P1;durP2;ratioP2;P2;SDS_P1;SDS_P2;PMS_P1;PMS_P2;Temp;Humidity;BMP_temperature;BMP_pressure;BME280_temperature;BME280_humidity;BME280_pressure;Samples;Min_cycle;Max_cycle;Signal;HPM_P1;HPM_P2
2022/12/17 13:19:57;;;;;;;77.20;33.30;;;;;;;-2.99;100.00;99460.30;2312547;76;21903;-57
2022/12/17 13:22:58;;;;;;;76.95;30.90;;;;;;;-3.07;100.00;99464.53;2305806;76;21033;-58
2022/12/17 13:25:59;;;;;;;76.37;30.88;;;;;;;-3.10;100.00;99462.36;2306536;76;21013;-57
2022/12/17 13:28:59;;;;;;;82.25;31.30;;;;;;;-3.19;100.00;99474.73;2297963;76;20997;-58
2022/12/17 13:31:59;;;;;;;85.03;31.77;;;;;;;-3.27;100.00;99473.42;2300704;76;21000;-58
2022/12/17 13:35:00;;;;;;;78.28;31.40;;;;;;;-3.39;100.00;99482.31;2307056;76;21009;-57
2022/12/17 13:38:00;;;;;;;86.00;30.92;;;;;;;-3.45;100.00;99475.87;2308686;76;21468;-57
2022/12/17 13:41:01;;;;;;;80.80;32.70;;;;;;;-3.44;100.00;99487.42;2307566;76;21037;-58
2022/12/17 13:44:02;;;;;;;82.35;32.00;;;;;;;-3.53;100.00;99484.38;2298661;76;20970;-58
2022/12/17 13:47:03;;;;;;;80.83;30.43;;;;;;;-3.58;100.00;99480.91;2298004;76;21137;-58
2022/12/17 13:50:03;;;;;;;80.50;30.97;;;;;;;-3.59;100.00;99480.50;2299530;76;21507;-58
2022/12/17 13:53:04;;;;;;;77.80;29.15;;;;;;;-3.61;100.00;99487.74;2308349;76;20993;-58
2022/12/17 13:56:04;;;;;;;80.53;29.82;;;;;;;-3.75;100.00;99488.91;2303002;76;20942;-58
2022/12/17 13:59:05;;;;;;;82.97;31.37;;;;;;;-3.78;100.00;99498.72;2298207;77;20934;-58
2022/12/17 14:02:05;;;;;;;82.17;31.10;;;;;;;-3.87;100.00;99496.09;2305257;76;20958;-57
2022/12/17 14:05:08;;;;;;;85.45;29.77;;;;;;;-3.98;100.00;99506.67;2294446;77;21021;-57
2022/12/17 14:08:08;;;;;;;86.20;30.77;;;;;;;-4.04;100.00;99513.88;2299712;76;20955;-58
2022/12/17 14:14:11;;;;;;;84.50;32.65;;;;;;;-4.14;100.00;99514.65;2295111;76;21061;-57
2022/12/17 14:17:11;;;;;;;93.45;32.88;;;;;;;-4.18;100.00;99517.59;2300800;76;21486;-57
2022/12/17 14:20:12;;;;;;;87.75;32.45;;;;;;;-4.23;100.00;99521.39;2298584;76;21555;-57
2022/12/17 14:23:13;;;;;;;96.82;34.98;;;;;;;-4.33;100.00;99523.43;2300664;76;20990;-58
2022/12/17 14:26:13;;;;;;;94.00;33.15;;;;;;;-4.43;100.00;99521.62;2300424;76;21018;-57
2022/12/17 14:29:15;;;;;;;92.60;33.95;;;;;;;-4.45;100.00;99522.00;2302492;76;20979;-57
2022/12/17 14:32:15;;;;;;;93.03;34.13;;;;;;;-4.49;100.00;99533.09;2297318;77;21519;-57
2022/12/17 14:35:16;;;;;;;93.85;34.03;;;;;;;-4.50;100.00;99538.61;2299038;76;21018;-58
2022/12/17 14:38:16;;;;;;;99.67;35.97;;;;;;;-4.55;100.00;99546.25;2302757;76;21001;-57
2022/12/17 14:44:20;;;;;;;96.72;34.05;;;;;;;-4.61;100.00;99557.70;2291753;76;21009;-57
2022/12/17 14:47:21;;;;;;;92.82;32.70;;;;;;;-4.67;100.00;99567.00;2303486;76;20973;-57
2022/12/17 14:50:21;;;;;;;98.80;35.65;;;;;;;-4.73;100.00;99572.47;2308207;76;21093;-58
2022/12/17 14:53:22;;;;;;;96.78;34.15;;;;;;;-4.73;100.00;99574.19;2301738;76;20982;-58
2022/12/17 14:56:22;;;;;;;85.57;30.60;;;;;;;-4.80;100.00;99574.52;2306637;76;20958;-58
2022/12/17 14:59:23;;;;;;;91.37;32.48;;;;;;;-4.81;100.00;99580.89;2301425;76;21026;-58
2022/12/17 15:02:25;;;;;;;92.47;33.33;;;;;;;-4.83;100.00;99594.11;2301944;76;20970;-57
2022/12/17 15:05:25;;;;;;;100.00;34.27;;;;;;;-4.88;100.00;99599.17;2305104;76;21010;-58
2022/12/17 15:08:26;;;;;;;89.72;32.65;;;;;;;-4.90;100.00;99602.11;2303039;76;21062;-58
2022/12/17 15:11:27;;;;;;;99.28;32.40;;;;;;;-4.84;100.00;99612.45;2303402;76;21020;-57
2022/12/17 15:14:28;;;;;;;91.53;32.05;;;;;;;-4.83;100.00;99615.86;2306508;76;21034;-58
2022/12/17 15:20:31;;;;;;;86.80;30.90;;;;;;;-4.92;100.00;99621.72;2291401;77;20970;-58
2022/12/17 15:23:32;;;;;;;92.57;31.85;;;;;;;-4.99;100.00;99612.23;2297115;76;21473;-57
2022/12/17 15:26:33;;;;;;;89.83;31.52;;;;;;;-4.97;100.00;99622.05;2297281;76;21033;-58
2022/12/17 15:29:33;;;;;;;87.17;32.48;;;;;;;-5.00;100.00;99622.02;2296841;76;21005;-57
2022/12/17 15:32:33;;;;;;;82.78;30.37;;;;;;;-5.00;100.00;99622.86;2296934;76;21050;-58
2022/12/17 15:35:34;;;;;;;92.62;31.80;;;;;;;-5.00;100.00;99630.97;2297080;76;20998;-58
2022/12/17 15:38:34;;;;;;;93.17;32.30;;;;;;;-5.03;100.00;99636.89;2296947;76;21484;-57
2022/12/17 15:44:37;;;;;;;93.82;33.83;;;;;;;-5.11;100.00;99634.66;2291096;77;20943;-58
2022/12/17 15:47:37;;;;;;;96.72;34.23;;;;;;;-5.16;100.00;99642.67;2299612;76;20978;-57
2022/12/17 15:50:38;;;;;;;102.95;35.15;;;;;;;-5.09;100.00;99647.89;2297349;76;20974;-58
2022/12/17 15:53:39;;;;;;;106.40;36.33;;;;;;;-5.13;100.00;99652.55;2297143;76;20971;-58
2022/12/17 15:56:39;;;;;;;103.62;34.27;;;;;;;-5.12;100.00;99662.35;2297298;76;20971;-57
2022/12/17 15:59:40;;;;;;;99.67;34.80;;;;;;;-5.17;100.00;99671.24;2297629;76;21077;-58
2022/12/17 16:02:40;;;;;;;100.65;35.08;;;;;;;-5.13;100.00;99662.78;2297186;76;21559;-57
2022/12/17 16:05:41;;;;;;;101.20;32.13;;;;;;;-5.18;100.00;99676.33;2296974;76;21557;-58
2022/12/17 16:08:42;;;;;;;102.00;36.77;;;;;;;-5.30;100.00;99670.17;2297060;76;20972;-57
2022/12/17 16:11:42;;;;;;;96.25;31.00;;;;;;;-5.34;100.00;99673.52;2297404;76;20907;-58
2022/12/17 16:14:42;;;;;;;113.28;36.03;;;;;;;-5.39;100.00;99695.58;2297228;76;21030;-58
2022/12/17 16:17:43;;;;;;;95.40;34.65;;;;;;;-5.43;100.00;99689.57;2296779;76;21504;-57
2022/12/17 16:20:43;;;;;;;105.00;35.28;;;;;;;-5.43;100.00;99692.52;2296970;76;21541;-58
2022/12/17 16:23:44;;;;;;;94.40;28.75;;;;;;;-5.39;100.00;99696.86;2297394;76;20958;-58
2022/12/17 16:26:44;;;;;;;102.78;35.03;;;;;;;-5.58;100.00;99679.91;2296830;76;20974;-58
2022/12/17 16:29:46;;;;;;;112.90;36.50;;;;;;;-5.40;100.00;99702.83;2297048;76;21076;-58
2022/12/17 16:32:47;;;;;;;111.97;34.88;;;;;;;-5.46;100.00;99712.53;2297207;76;21026;-57
2022/12/17 16:35:49;;;;;;;102.70;34.43;;;;;;;-5.49;100.00;99715.44;2302555;76;21468;-57
2022/12/17 16:38:49;;;;;;;110.45;33.95;;;;;;;-5.50;100.00;99715.86;2299393;76;20967;-58
2022/12/17 16:41:50;;;;;;;109.05;35.48;;;;;;;-5.50;100.00;99727.37;2297462;76;20965;-58
2022/12/17 16:44:50;;;;;;;107.43;37.42;;;;;;;-5.43;100.00;99725.37;2296840;76;21105;-57
2022/12/17 16:47:51;;;;;;;108.65;34.65;;;;;;;-5.48;100.00;99721.86;2297005;76;20951;-58
2022/12/17 16:50:52;;;;;;;99.40;30.88;;;;;;;-5.51;100.00;99726.06;2296903;77;21028;-57
2022/12/17 16:53:52;;;;;;;109.70;33.60;;;;;;;-5.49;100.00;99734.61;2297371;76;20947;-58
2022/12/17 16:56:52;;;;;;;106.47;32.35;;;;;;;-5.57;100.00;99743.43;2296880;76;21548;-57
2022/12/17 16:59:53;;;;;;;108.80;34.30;;;;;;;-5.57;100.00;99749.82;2297206;76;21010;-58
2022/12/17 18:32:07;;;;;;;118.33;37.58;;;;;;;-4.73;100.00;99837.86;2301920;77;23035;-59
2022/12/17 18:35:08;;;;;;;109.17;33.08;;;;;;;-4.31;100.00;99848.38;2298809;77;21005;-59
2022/12/17 18:38:08;;;;;;;110.60;33.05;;;;;;;-4.42;100.00;99847.34;2294270;77;21000;-59
2022/12/17 18:43:22;;;;;;;93.25;31.52;;;;;;;-4.25;100.00;99851.43;2296601;77;21008;-58
2022/12/17 18:44:12;;;;;;;83.85;27.35;;;;;;;-4.29;100.00;99855.66;2270317;78;21528;-59
2022/12/17 18:47:13;;;;;;;86.25;27.98;;;;;;;-4.25;100.00;99866.80;2292748;77;20996;-59
2022/12/17 18:50:13;;;;;;;79.40;28.35;;;;;;;-4.08;100.00;99861.94;2294026;77;20981;-58
2022/12/17 18:53:13;;;;;;;73.67;24.37;;;;;;;-4.05;100.00;99877.36;2285027;77;20981;-58
2022/12/17 18:56:14;;;;;;;80.20;27.48;;;;;;;-4.12;100.00;99878.98;2288943;77;21000;-59
2022/12/17 18:59:15;;;;;;;81.22;27.35;;;;;;;-4.26;100.00;99885.59;2292602;77;21028;-58
2022/12/17 19:02:16;;;;;;;81.35;26.93;;;;;;;-4.22;100.00;99891.22;2293048;77;21006;-59
2022/12/17 19:05:16;;;;;;;72.90;25.12;;;;;;;-4.11;100.00;99899.05;2291651;77;20979;-58
2022/12/17 19:08:17;;;;;;;80.20;27.95;;;;;;;-4.14;100.00;99892.17;2290296;77;20971;-58
2022/12/17 19:11:18;;;;;;;80.28;25.65;;;;;;;-4.12;100.00;99894.76;2294674;77;21482;-58
2022/12/17 19:14:21;;;;;;;84.17;27.85;;;;;;;-4.19;100.00;99901.08;2290103;77;20975;-58
2022/12/17 19:17:21;;;;;;;73.40;25.60;;;;;;;-4.00;100.00;99886.84;2290090;77;21498;-58
2022/12/17 19:20:22;;;;;;;70.42;24.57;;;;;;;-4.14;100.00;99896.02;2292507;77;20996;-58
2022/12/17 19:23:22;;;;;;;71.87;24.65;;;;;;;-4.22;100.00;99898.91;2293330;77;21041;-58
2022/12/17 19:26:24;;;;;;;67.25;23.75;;;;;;;-4.12;100.00;99909.73;2289481;77;21530;-58
2022/12/17 19:29:25;;;;;;;68.52;22.75;;;;;;;-3.90;100.00;99921.60;2286718;77;21012;-58
2022/12/17 19:32:25;;;;;;;63.20;22.10;;;;;;;-3.99;100.00;99941.55;2289429;77;21012;-58
2022/12/17 19:35:26;;;;;;;65.95;23.05;;;;;;;-3.96;100.00;99930.48;2284555;77;21016;-58
2022/12/17 19:38:29;;;;;;;63.98;21.95;;;;;;;-4.07;100.00;99936.28;2264827;77;20996;-58
2022/12/17 19:41:30;;;;;;;59.55;21.70;;;;;;;-4.08;100.00;99935.86;2284624;77;21466;-59
2022/12/17 19:44:31;;;;;;;59.13;21.87;;;;;;;-3.98;100.00;99944.97;2293657;77;21024;-58
2022/12/17 19:47:32;;;;;;;63.33;23.45;;;;;;;-4.02;100.00;99955.61;2292019;77;21027;-59
2022/12/17 19:50:33;;;;;;;58.48;21.48;;;;;;;-3.97;100.00;99950.11;2285512;77;22302;-58
2022/12/17 19:53:33;;;;;;;56.55;22.40;;;;;;;-3.92;100.00;99960.43;2295768;78;20988;-58
2022/12/17 19:56:33;;;;;;;58.20;20.72;;;;;;;-3.96;100.00;99967.66;2288735;77;20945;-59
2022/12/17 19:59:34;;;;;;;60.30;22.25;;;;;;;-3.94;100.00;99970.66;2295960;77;20933;-59
2022/12/17 20:02:35;;;;;;;62.65;22.62;;;;;;;-4.03;100.00;99989.75;2281725;77;20971;-59
2022/12/17 20:05:35;;;;;;;61.63;22.05;;;;;;;-4.10;100.00;99996.89;2293789;77;21064;-59
2022/12/17 20:08:36;;;;;;;64.20;23.57;;;;;;;-3.97;100.00;99986.43;2289707;77;21546;-58
2022/12/17 20:11:37;;;;;;;58.78;20.95;;;;;;;-3.90;100.00;100001.92;2284942;77;21020;-58
2022/12/17 20:14:37;;;;;;;64.50;23.22;;;;;;;-4.11;100.00;100012.67;2285068;77;21083;-58
2022/12/17 20:17:38;;;;;;;60.35;20.15;;;;;;;-4.07;100.00;100005.91;2291811;77;21011;-58
2022/12/17 20:20:39;;;;;;;56.80;19.25;;;;;;;-4.19;100.00;100007.42;2286471;77;20993;-59
2022/12/17 20:23:40;;;;;;;55.40;18.82;;;;;;;-4.35;100.00;100020.37;2292848;77;21452;-58
2022/12/17 20:26:41;;;;;;;58.00;19.52;;;;;;;-4.27;100.00;100029.47;2294119;77;20996;-58
2022/12/17 20:29:42;;;;;;;63.65;21.60;;;;;;;-4.25;100.00;100015.00;2290946;77;21014;-58
2022/12/17 20:32:43;;;;;;;51.35;17.50;;;;;;;-4.40;100.00;100022.41;2285472;77;21454;-58
2022/12/17 20:35:43;;;;;;;53.48;17.95;;;;;;;-4.42;100.00;100041.59;2293749;77;20960;-59
2022/12/17 20:38:44;;;;;;;54.58;18.50;;;;;;;-4.37;100.00;100033.98;2287915;77;20957;-60
2022/12/17 20:41:44;;;;;;;50.43;17.92;;;;;;;-4.41;100.00;100043.32;2290802;77;20993;-59
2022/12/17 20:44:45;;;;;;;53.42;18.42;;;;;;;-4.46;100.00;100033.39;2289042;77;20981;-58
2022/12/17 20:47:46;;;;;;;56.70;19.73;;;;;;;-4.45;100.00;100042.81;2292412;77;21070;-59
2022/12/17 20:50:46;;;;;;;54.98;19.48;;;;;;;-4.50;100.00;100047.40;2288845;77;21094;-59
2022/12/17 20:53:47;;;;;;;53.78;18.42;;;;;;;-4.46;100.00;100060.28;2294465;77;21008;-59
2022/12/17 20:56:47;;;;;;;57.50;19.25;;;;;;;-4.58;100.00;100072.44;2293657;77;20949;-59
2022/12/17 20:59:48;;;;;;;53.40;18.20;;;;;;;-4.58;100.00;100073.72;2290760;77;20948;-58
2022/12/17 21:02:49;;;;;;;52.62;17.98;;;;;;;-4.59;100.00;100080.09;2294959;77;21062;-58
2022/12/17 21:05:49;;;;;;;48.87;17.57;;;;;;;-4.50;100.00;100076.42;2293274;77;20985;-58
2022/12/17 21:08:50;;;;;;;51.18;17.87;;;;;;;-4.53;100.00;100078.50;2292218;77;21008;-58
2022/12/17 21:11:51;;;;;;;58.02;18.05;;;;;;;-4.46;100.00;100085.91;2293601;77;20988;-58
2022/12/17 21:14:52;;;;;;;56.75;17.50;;;;;;;-4.53;100.00;100116.06;2295638;77;21059;-58
2022/12/17 21:17:52;;;;;;;53.33;19.75;;;;;;;-4.61;100.00;100106.95;2295074;77;21541;-58
2022/12/17 21:20:53;;;;;;;50.40;16.90;;;;;;;-4.50;100.00;100098.63;2289331;77;21011;-58
2022/12/17 21:23:53;;;;;;;55.25;18.95;;;;;;;-4.42;100.00;100095.38;2295521;77;20980;-58
2022/12/17 21:26:54;;;;;;;49.88;17.12;;;;;;;-4.45;100.00;100096.60;2295331;77;20968;-58
2022/12/17 21:29:54;;;;;;;47.85;16.32;;;;;;;-4.47;100.00;100101.23;2295577;77;20973;-58
2022/12/17 21:32:54;;;;;;;50.65;16.20;;;;;;;-4.51;100.00;100097.77;2289871;77;21011;-58
2022/12/17 21:35:55;;;;;;;51.02;17.00;;;;;;;-4.56;100.00;100102.77;2295222;77;21463;-58
2022/12/17 21:38:55;;;;;;;44.10;15.25;;;;;;;-4.56;100.00;100110.45;2293656;77;20975;-58
2022/12/17 21:44:58;;;;;;;;;;;;;;;-4.52;100.00;100108.41;2257404;77;21001;-58
2022/12/17 21:47:58;;;;;;;52.20;16.50;;;;;;;-4.41;100.00;100107.36;2278117;77;20124;-58
2022/12/17 21:50:59;;;;;;;49.03;14.95;;;;;;;-4.52;100.00;100119.94;2282615;77;20964;-57
2022/12/17 21:53:59;;;;;;;47.20;14.23;;;;;;;-4.56;100.00;100124.97;2272653;77;21062;-58
2022/12/17 21:57:00;;;;;;;47.48;15.13;;;;;;;-4.47;100.00;100119.17;2276869;78;21079;-58
2022/12/17 22:00:01;;;;;;;46.83;15.13;;;;;;;-4.39;100.00;100125.33;2271268;77;21460;-58
2022/12/17 22:03:01;;;;;;;51.08;17.25;;;;;;;-4.45;100.00;100135.42;2264948;78;21007;-58
2022/12/17 22:06:02;;;;;;;45.55;15.75;;;;;;;-4.47;100.00;100146.92;2278704;77;21047;-58
2022/12/17 22:09:02;;;;;;;45.70;16.07;;;;;;;-4.48;100.00;100159.69;2280418;77;20965;-58
2022/12/17 22:15:05;;;;;;;42.85;13.98;;;;;;;-4.43;100.00;100163.23;2259770;77;20997;-58
2022/12/17 22:18:05;;;;;;;43.50;14.30;;;;;;;-4.53;100.00;100161.73;2281016;77;21024;-59
2022/12/17 22:21:06;;;;;;;41.95;14.33;;;;;;;-4.53;100.00;100163.02;2264421;78;21031;-59
2022/12/17 22:24:06;;;;;;;40.63;13.28;;;;;;;-4.50;100.00;100155.83;2278459;77;21448;-58
2022/12/17 22:27:07;;;;;;;48.28;15.10;;;;;;;-4.57;100.00;100165.09;2273169;77;20972;-59
2022/12/17 22:33:10;;;;;;;42.83;16.52;;;;;;;-4.57;100.00;100165.09;2256866;77;21460;-59
2022/12/17 22:36:10;;;;;;;44.03;14.90;;;;;;;-4.53;100.00;100176.25;2262979;77;21034;-58
2022/12/17 22:39:11;;;;;;;48.73;15.70;;;;;;;-4.41;100.00;100184.61;2273948;77;21080;-58
2022/12/17 22:45:13;;;;;;;45.35;15.65;;;;;;;-4.58;100.00;100187.68;2284889;77;21005;-58
2022/12/17 22:48:14;;;;;;;38.55;12.93;;;;;;;-4.55;100.00;100186.46;2284523;77;20977;-58
2022/12/17 22:51:15;;;;;;;47.03;16.10;;;;;;;-4.55;100.00;100192.87;2273336;77;21069;-58
2022/12/17 22:54:16;;;;;;;43.00;13.98;;;;;;;-4.50;100.00;100184.00;2270271;77;21104;-58
2022/12/17 22:57:16;;;;;;;44.98;15.25;;;;;;;-4.50;100.00;100189.55;2260659;78;20988;-58
2022/12/17 23:00:17;;;;;;;48.75;16.10;;;;;;;-4.54;100.00;100198.45;2270785;77;20991;-58
2022/12/17 23:03:17;;;;;;;44.35;14.75;;;;;;;-4.38;100.00;100197.08;2260293;78;21039;-58
2022/12/17 23:06:18;;;;;;;43.45;14.30;;;;;;;-4.37;100.00;100206.91;2264215;77;21117;-58
2022/12/17 23:09:19;;;;;;;45.05;14.43;;;;;;;-4.37;100.00;100209.06;2277016;77;21489;-58
2022/12/17 23:15:21;;;;;;;46.48;16.00;;;;;;;-4.38;100.00;100209.03;2273775;77;20964;-58
2022/12/17 23:18:22;;;;;;;39.33;14.18;;;;;;;-4.36;100.00;100217.61;2270062;78;21013;-58
2022/12/17 23:21:22;;;;;;;45.92;15.53;;;;;;;-4.36;100.00;100218.46;2272197;78;20975;-58
2022/12/17 23:24:23;;;;;;;41.77;14.68;;;;;;;-4.25;100.00;100215.26;2267031;77;21123;-58
2022/12/17 23:27:24;;;;;;;40.52;13.98;;;;;;;-4.26;100.00;100221.23;2283615;77;20997;-59
2022/12/17 23:30:24;;;;;;;41.95;14.40;;;;;;;-4.19;100.00;100225.66;2284253;78;21468;-58
2022/12/17 23:33:25;;;;;;;41.28;14.07;;;;;;;-4.21;100.00;100225.62;2284748;78;21013;-58
2022/12/17 23:36:25;;;;;;;40.65;13.75;;;;;;;-4.26;100.00;100232.34;2279879;78;20973;-58
2022/12/17 23:39:26;;;;;;;42.23;13.95;;;;;;;-4.29;100.00;100235.27;2272627;77;20971;-59
2022/12/17 23:42:26;;;;;;;44.10;14.47;;;;;;;-4.39;100.00;100234.20;2274080;77;20948;-59
2022/12/17 23:45:27;;;;;;;41.47;14.73;;;;;;;-4.24;100.00;100249.03;2277442;78;21001;-58
2022/12/17 23:48:28;;;;;;;41.30;14.25;;;;;;;-4.15;100.00;100248.36;2275093;77;21509;-58
2022/12/17 23:51:32;;;;;;;35.95;13.48;;;;;;;-4.13;100.00;100248.84;2271201;77;21020;-58
2022/12/17 23:54:32;;;;;;;42.95;14.58;;;;;;;-4.32;100.00;100254.00;2263968;78;20959;-58
2022/12/17 23:57:32;;;;;;;41.25;13.30;;;;;;;-4.20;100.00;100256.80;2260544;78;20995;-58
